Time;durP1;ratioP1;P1;durP2;ratioP2;P2;SDS_P1;SDS_P2;PMS_P1;PMS_P2;Temp;Humidity;BMP_temperature;BMP_pressure;BME280_temperature;BME280_humidity;BME280_pressure;Samples;Min_cycle;Max_cycle;Signal;HPM_P1;HPM_P2
2024/02/19 00:01:27;;;;;;;2.67;1.30;;;9.50;87.30;;;;;;5034839;28;20492;-73
2024/02/19 00:03:52;;;;;;;2.50;1.17;;;9.50;87.40;;;;;;5036809;28;20506;-72
2024/02/19 00:06:18;;;;;;;1.30;1.00;;;9.50;87.30;;;;;;5040042;28;20420;-70
2024/02/19 00:08:44;;;;;;;2.00;1.23;;;9.50;87.30;;;;;;5035603;28;20260;-74
2024/02/19 00:11:09;;;;;;;1.37;1.00;;;9.50;87.30;;;;;;5031686;28;20205;-75
2024/02/19 00:13:37;;;;;;;1.30;1.00;;;9.60;87.10;;;;;;5039142;28;20276;-75
2024/02/19 00:16:03;;;;;;;1.50;1.10;;;9.50;86.90;;;;;;5039698;28;20303;-72
2024/02/19 00:18:28;;;;;;;2.07;0.87;;;9.50;86.80;;;;;;5036564;28;20428;-71
2024/02/19 00:20:54;;;;;;;2.13;1.30;;;9.40;86.80;;;;;;5031835;28;20670;-71
2024/02/19 00:23:20;;;;;;;1.93;1.10;;;9.50;87.00;;;;;;5035654;28;20184;-72
2024/02/19 00:25:45;;;;;;;1.50;0.87;;;9.60;86.90;;;;;;5036262;28;20216;-75
2024/02/19 00:28:12;;;;;;;3.27;1.20;;;9.60;87.00;;;;;;5033869;28;20280;-72
2024/02/19 00:30:39;;;;;;;1.40;0.90;;;9.60;86.90;;;;;;5032521;28;20661;-73
2024/02/19 00:33:04;;;;;;;2.37;0.93;;;9.60;86.60;;;;;;5033695;28;20452;-71
2024/02/19 00:35:31;;;;;;;1.00;0.70;;;9.60;86.60;;;;;;5035917;28;20465;-73
2024/02/19 00:37:57;;;;;;;1.10;0.77;;;9.60;86.80;;;;;;5033677;28;20693;-72
2024/02/19 00:40:23;;;;;;;1.40;0.80;;;9.60;86.90;;;;;;5026517;28;20439;-74
2024/02/19 00:42:50;;;;;;;1.27;0.80;;;9.60;86.90;;;;;;5025692;28;20185;-72
2024/02/19 00:45:16;;;;;;;3.93;0.93;;;9.60;86.80;;;;;;5039043;28;20502;-73
2024/02/19 00:47:42;;;;;;;1.53;0.70;;;9.60;87.00;;;;;;5030208;28;20921;-73
2024/02/19 00:50:08;;;;;;;1.30;0.77;;;9.60;86.90;;;;;;5036385;28;20189;-73
2024/02/19 00:52:34;;;;;;;0.90;0.70;;;9.60;87.00;;;;;;5033284;28;20280;-72
2024/02/19 00:54:59;;;;;;;0.77;0.60;;;9.60;86.90;;;;;;5037017;28;20947;-74
2024/02/19 00:57:25;;;;;;;1.00;0.73;;;9.50;87.00;;;;;;5040794;28;20419;-72
2024/02/19 00:59:51;;;;;;;0.83;0.63;;;9.60;87.10;;;;;;5041607;28;20209;-74
2024/02/19 01:02:16;;;;;;;0.80;0.60;;;9.60;87.30;;;;;;5043627;28;20213;-71
2024/02/19 01:04:42;;;;;;;2.90;0.80;;;9.60;87.00;;;;;;5042408;28;20220;-74
2024/02/19 01:07:07;;;;;;;0.80;0.60;;;9.60;87.00;;;;;;5036841;28;20177;-72
2024/02/19 01:09:33;;;;;;;1.30;0.63;;;9.60;87.10;;;;;;5034576;28;20185;-73
2024/02/19 01:11:59;;;;;;;0.90;0.70;;;9.60;87.10;;;;;;5051057;28;20256;-75
2024/02/19 01:14:25;;;;;;;1.70;1.00;;;9.70;87.30;;;;;;5054539;28;20454;-74
2024/02/19 01:16:51;;;;;;;0.90;0.57;;;9.60;87.10;;;;;;5044986;28;20637;-75
2024/02/19 01:19:16;;;;;;;0.80;0.50;;;9.60;87.30;;;;;;5038684;28;20178;-71
2024/02/19 01:21:42;;;;;;;0.90;0.60;;;9.70;87.30;;;;;;5031087;28;20555;-74
2024/02/19 01:24:08;;;;;;;0.90;0.63;;;9.70;87.10;;;;;;5032432;28;20217;-74
2024/02/19 01:26:34;;;;;;;1.47;0.70;;;9.80;86.90;;;;;;5033142;28;20499;-75
2024/02/19 01:28:59;;;;;;;1.53;0.70;;;9.80;86.80;;;;;;5031752;28;20185;-74
2024/02/19 01:31:25;;;;;;;0.83;0.60;;;9.80;86.80;;;;;;5027518;28;20254;-71
2024/02/19 01:33:51;;;;;;;1.20;0.70;;;9.80;86.60;;;;;;5031902;28;20554;-72
2024/02/19 01:36:17;;;;;;;1.33;0.60;;;9.80;86.50;;;;;;5033911;28;20424;-73
2024/02/19 01:38:42;;;;;;;0.73;0.50;;;9.80;86.50;;;;;;5029494;28;20327;-75
2024/02/19 01:41:08;;;;;;;1.03;0.70;;;9.70;86.80;;;;;;5029980;28;20687;-75
2024/02/19 01:43:33;;;;;;;0.80;0.67;;;9.70;86.80;;;;;;5031965;28;20181;-73
2024/02/19 01:45:59;;;;;;;0.80;0.60;;;9.70;87.00;;;;;;5033850;28;20228;-73
2024/02/19 01:48:25;;;;;;;1.10;0.60;;;9.70;87.00;;;;;;5029565;28;20181;-72
2024/02/19 01:50:51;;;;;;;0.93;0.60;;;9.60;87.30;;;;;;5028362;28;20463;-75
2024/02/19 01:53:17;;;;;;;0.77;0.50;;;9.60;87.40;;;;;;5036028;28;20193;-72
2024/02/19 01:55:44;;;;;;;0.70;0.60;;;9.50;87.40;;;;;;5033202;28;20502;-71
2024/02/19 01:58:11;;;;;;;0.77;0.60;;;9.50;87.40;;;;;;5031378;28;20245;-74
2024/02/19 02:00:38;;;;;;;1.43;0.57;;;9.50;87.60;;;;;;5029846;28;20591;-71
2024/02/19 02:03:04;;;;;;;1.07;0.60;;;9.50;87.60;;;;;;5035915;28;20464;-71
2024/02/19 02:05:30;;;;;;;1.37;0.63;;;9.50;87.60;;;;;;5035226;28;20549;-73
2024/02/19 02:07:57;;;;;;;0.80;0.57;;;9.60;87.70;;;;;;5034293;28;20426;-73
2024/02/19 02:10:22;;;;;;;0.83;0.60;;;9.60;87.70;;;;;;5030964;28;21830;-73
2024/02/19 02:12:48;;;;;;;1.17;0.60;;;9.60;87.70;;;;;;5031533;28;20474;-72
2024/02/19 02:15:14;;;;;;;1.80;0.73;;;9.60;87.70;;;;;;5038323;28;20192;-72
2024/02/19 02:17:43;;;;;;;1.07;0.67;;;9.60;87.60;;;;;;5029172;28;20177;-73
2024/02/19 02:20:10;;;;;;;1.93;0.83;;;9.60;87.70;;;;;;5028858;28;20275;-75
2024/02/19 02:22:36;;;;;;;1.23;0.80;;;9.60;87.80;;;;;;5031624;28;20467;-72
2024/02/19 02:25:02;;;;;;;0.70;0.60;;;9.60;87.80;;;;;;5029159;28;20503;-73
2024/02/19 02:27:29;;;;;;;1.20;0.70;;;9.60;87.80;;;;;;5027021;28;20486;-74
2024/02/19 02:29:54;;;;;;;1.87;0.70;;;9.50;88.00;;;;;;5026942;28;20181;-76
2024/02/19 02:32:20;;;;;;;1.00;0.80;;;9.60;88.40;;;;;;5026363;28;20471;-71
2024/02/19 02:34:46;;;;;;;1.10;0.60;;;9.50;88.30;;;;;;5028675;28;20173;-73
2024/02/19 02:37:13;;;;;;;0.60;0.57;;;9.50;88.40;;;;;;5033680;28;20205;-72
2024/02/19 02:39:39;;;;;;;0.90;0.70;;;9.50;88.60;;;;;;5024616;28;20425;-75
2024/02/19 02:42:05;;;;;;;1.20;0.60;;;9.50;88.90;;;;;;5034660;28;20463;-74
2024/02/19 02:44:31;;;;;;;8.10;0.90;;;9.40;88.90;;;;;;5034428;28;20455;-72
2024/02/19 02:46:57;;;;;;;0.80;0.50;;;9.40;89.20;;;;;;5028701;28;20891;-71
2024/02/19 02:49:22;;;;;;;1.77;0.80;;;9.40;89.30;;;;;;5031323;28;20191;-73
2024/02/19 02:51:48;;;;;;;0.80;0.60;;;9.40;89.30;;;;;;5024979;28;20554;-73
2024/02/19 02:54:13;;;;;;;0.80;0.70;;;9.40;89.20;;;;;;5033787;28;20189;-73
2024/02/19 02:56:39;;;;;;;0.83;0.67;;;9.40;89.30;;;;;;5023888;28;20178;-75
2024/02/19 02:59:05;;;;;;;1.20;0.70;;;9.40;89.30;;;;;;5035350;28;20273;-75
2024/02/19 03:01:30;;;;;;;1.23;0.90;;;9.40;89.20;;;;;;5021636;28;20216;-72
2024/02/19 03:03:56;;;;;;;1.20;0.70;;;9.40;89.20;;;;;;5025797;28;20196;-71
2024/02/19 03:06:22;;;;;;;1.10;0.80;;;9.40;89.20;;;;;;5027157;28;20553;-72
2024/02/19 03:08:48;;;;;;;1.40;1.10;;;9.30;89.60;;;;;;5024897;28;20424;-72
2024/02/19 03:11:14;;;;;;;1.63;1.00;;;9.40;89.60;;;;;;5020553;28;20201;-73
2024/02/19 03:13:39;;;;;;;3.10;1.00;;;9.30;89.60;;;;;;5023154;28;21096;-75
2024/02/19 03:16:05;;;;;;;1.10;0.90;;;9.30;89.70;;;;;;5028172;28;20428;-74
2024/02/19 03:18:35;;;;;;;1.20;0.80;;;9.40;89.90;;;;;;5028153;28;20211;-73
2024/02/19 03:21:01;;;;;;;4.33;1.10;;;9.40;89.90;;;;;;5024949;28;20508;-74
2024/02/19 03:23:27;;;;;;;9.67;1.33;;;9.40;89.70;;;;;;5020612;28;20433;-72
2024/02/19 03:25:53;;;;;;;1.70;1.20;;;9.40;89.70;;;;;;5020701;28;20475;-72
2024/02/19 03:28:19;;;;;;;1.63;1.30;;;9.40;89.90;;;;;;5028090;28;20676;-72
2024/02/19 03:30:45;;;;;;;1.90;1.17;;;9.40;89.90;;;;;;5025552;28;21145;-71
2024/02/19 03:33:12;;;;;;;4.10;1.50;;;9.40;89.90;;;;;;5032567;28;20595;-74
2024/02/19 03:35:38;;;;;;;2.40;1.17;;;9.40;89.70;;;;;;5033824;28;20415;-71
2024/02/19 03:38:04;;;;;;;3.27;1.50;;;9.40;89.30;;;;;;5033202;28;20920;-72
2024/02/19 03:40:30;;;;;;;3.30;1.47;;;9.40;89.20;;;;;;5030360;28;20467;-72
2024/02/19 03:42:55;;;;;;;2.30;1.43;;;9.40;89.20;;;;;;5030561;28;20228;-75
2024/02/19 03:45:21;;;;;;;1.83;1.30;;;9.40;89.20;;;;;;5037589;28;20263;-72
2024/02/19 03:47:47;;;;;;;3.63;1.20;;;9.40;89.00;;;;;;5033888;28;20185;-72
2024/02/19 03:50:13;;;;;;;2.03;1.47;;;9.40;89.00;;;;;;5032171;28;20451;-73
2024/02/19 03:52:40;;;;;;;1.57;1.27;;;9.50;88.90;;;;;;5025003;28;20521;-72
2024/02/19 03:55:06;;;;;;;4.60;1.70;;;9.50;88.90;;;;;;5030927;28;20239;-72
2024/02/19 03:57:32;;;;;;;2.40;1.40;;;9.50;88.60;;;;;;5033702;28;20419;-72
2024/02/19 03:59:57;;;;;;;2.27;1.50;;;9.50;88.60;;;;;;5032476;28;20416;-74
2024/02/19 04:02:23;;;;;;;1.90;1.20;;;9.50;88.70;;;;;;5022268;28;20202;-72
2024/02/19 04:04:49;;;;;;;2.27;1.47;;;9.50;88.70;;;;;;5032550;28;20299;-70
2024/02/19 04:07:15;;;;;;;3.70;1.87;;;9.60;88.70;;;;;;5028309;28;20511;-72
2024/02/19 04:09:41;;;;;;;2.17;1.40;;;9.50;88.90;;;;;;5033704;28;20185;-74
2024/02/19 04:12:08;;;;;;;3.17;1.73;;;9.50;89.30;;;;;;5024383;28;20347;-74
2024/02/19 04:14:35;;;;;;;3.70;1.50;;;9.50;89.70;;;;;;5034060;28;20947;-74
2024/02/19 04:17:00;;;;;;;1.90;1.40;;;9.40;89.90;;;;;;5027856;28;20429;-72
2024/02/19 04:19:28;;;;;;;2.40;2.00;;;9.40;90.00;;;;;;5033745;28;21058;-72
2024/02/19 04:21:53;;;;;;;2.27;1.40;;;9.40;90.20;;;;;;5028686;28;20587;-71
2024/02/19 04:24:19;;;;;;;2.30;1.80;;;9.40;90.30;;;;;;5031248;28;20483;-71
2024/02/19 04:26:45;;;;;;;6.40;2.30;;;9.30;90.30;;;;;;5029210;28;20224;-70
2024/02/19 04:29:10;;;;;;;3.10;2.00;;;9.30;90.40;;;;;;5030594;28;20443;-74
2024/02/19 04:31:37;;;;;;;4.93;2.37;;;9.40;90.30;;;;;;5030527;28;20225;-73
2024/02/19 04:34:03;;;;;;;2.07;1.40;;;9.40;90.10;;;;;;5034943;28;20182;-71
2024/02/19 04:36:29;;;;;;;5.10;2.23;;;9.40;90.10;;;;;;5035665;28;20853;-73
2024/02/19 04:38:54;;;;;;;7.73;2.20;;;9.40;89.70;;;;;;5037284;28;20561;-73
2024/02/19 04:41:20;;;;;;;2.63;1.80;;;9.50;89.60;;;;;;5026349;28;20220;-75
2024/02/19 04:43:45;;;;;;;3.20;1.70;;;9.50;89.60;;;;;;5024663;28;20201;-74
2024/02/19 04:46:11;;;;;;;2.83;1.70;;;9.50;89.30;;;;;;5032083;28;20228;-72
2024/02/19 04:48:37;;;;;;;2.20;1.50;;;9.50;89.30;;;;;;5032081;28;20196;-72
2024/02/19 04:51:05;;;;;;;3.10;1.47;;;9.50;88.90;;;;;;5026113;28;20559;-72
2024/02/19 04:53:31;;;;;;;5.00;2.40;;;9.50;88.90;;;;;;5022828;28;20475;-74
2024/02/19 04:55:57;;;;;;;4.30;1.90;;;9.50;88.70;;;;;;5030426;28;20474;-74
2024/02/19 04:58:23;;;;;;;4.77;2.70;;;9.50;88.70;;;;;;5033591;28;20415;-75
2024/02/19 05:00:49;;;;;;;3.50;2.60;;;9.50;88.70;;;;;;5030097;28;20232;-74
2024/02/19 05:03:14;;;;;;;8.13;3.27;;;9.50;88.30;;;;;;5041501;28;20449;-75
2024/02/19 05:05:40;;;;;;;6.47;2.67;;;9.50;87.80;;;;;;5033397;28;20992;-73
2024/02/19 05:08:06;;;;;;;10.33;3.30;;;9.50;87.70;;;;;;5037021;28;20987;-71
2024/02/19 05:10:32;;;;;;;6.73;2.83;;;9.50;87.40;;;;;;5031562;28;20212;-73
2024/02/19 05:12:58;;;;;;;8.33;2.80;;;9.50;87.30;;;;;;5037943;28;20251;-72
2024/02/19 05:15:23;;;;;;;4.13;2.83;;;9.60;87.00;;;;;;5028945;28;20313;-74
2024/02/19 05:17:49;;;;;;;4.20;3.23;;;9.60;86.90;;;;;;5036720;28;20184;-74
2024/02/19 05:20:15;;;;;;;7.37;3.17;;;9.60;86.90;;;;;;5030920;28;20185;-74
2024/02/19 05:22:40;;;;;;;6.30;3.37;;;9.50;86.60;;;;;;5035775;28;20848;-72
2024/02/19 05:25:07;;;;;;;8.23;3.43;;;9.60;86.50;;;;;;5038948;28;20351;-72
2024/02/19 05:27:33;;;;;;;10.13;4.17;;;9.60;86.20;;;;;;5036066;28;20184;-74
2024/02/19 05:29:59;;;;;;;7.43;3.87;;;9.60;85.70;;;;;;5031105;28;20427;-74
2024/02/19 05:32:24;;;;;;;8.90;4.40;;;9.60;85.30;;;;;;5029002;28;20852;-71
2024/02/19 05:34:50;;;;;;;8.70;3.73;;;9.60;84.90;;;;;;5037617;28;20432;-73
2024/02/19 05:37:16;;;;;;;7.73;3.23;;;9.70;84.90;;;;;;5032759;28;20181;-74
2024/02/19 05:39:42;;;;;;;6.53;3.77;;;9.70;84.70;;;;;;5036862;28;20770;-74
2024/02/19 05:42:08;;;;;;;6.83;3.73;;;9.60;84.00;;;;;;5031486;28;20209;-73
2024/02/19 05:44:35;;;;;;;5.70;3.40;;;9.70;84.10;;;;;;5035405;28;20469;-72
2024/02/19 05:47:00;;;;;;;7.30;3.93;;;9.70;84.30;;;;;;5032185;28;20466;-72
2024/02/19 05:49:26;;;;;;;6.43;3.70;;;9.70;84.00;;;;;;5035522;28;20529;-72
2024/02/19 05:51:52;;;;;;;11.80;3.80;;;9.70;84.10;;;;;;5034201;28;20236;-74
2024/02/19 05:54:18;;;;;;;6.03;3.10;;;9.70;84.10;;;;;;5035837;28;20208;-73
2024/02/19 05:56:44;;;;;;;5.63;3.27;;;9.70;83.80;;;;;;5043107;28;20454;-72
2024/02/19 05:59:09;;;;;;;10.67;3.70;;;9.70;83.60;;;;;;5043869;28;20436;-77
2024/02/19 06:01:35;;;;;;;5.63;3.60;;;9.60;83.60;;;;;;5044393;28;20211;-73
2024/02/19 06:04:01;;;;;;;7.47;3.93;;;9.60;83.60;;;;;;5047765;28;20197;-72
2024/02/19 06:06:26;;;;;;;6.50;3.93;;;9.60;83.60;;;;;;5047177;28;20201;-73
2024/02/19 06:08:52;;;;;;;6.70;3.70;;;9.70;83.80;;;;;;5035697;28;20607;-73
2024/02/19 06:11:20;;;;;;;6.27;4.03;;;9.60;83.80;;;;;;5037101;28;20284;-74
2024/02/19 06:13:47;;;;;;;8.93;3.50;;;9.60;84.00;;;;;;5041598;28;20741;-74
2024/02/19 06:16:12;;;;;;;8.70;3.33;;;9.60;83.80;;;;;;5039803;28;20438;-72
2024/02/19 06:18:38;;;;;;;8.00;3.33;;;9.70;83.60;;;;;;5036751;28;20412;-74
2024/02/19 06:21:03;;;;;;;5.60;3.77;;;9.70;83.60;;;;;;5029928;28;20217;-73
2024/02/19 06:23:29;;;;;;;6.73;3.33;;;9.70;83.30;;;;;;5033185;28;20189;-73
2024/02/19 06:25:55;;;;;;;6.53;3.57;;;9.70;83.30;;;;;;5029456;28;20217;-74
2024/02/19 06:28:21;;;;;;;5.03;3.47;;;9.70;83.30;;;;;;5033507;28;20509;-72
2024/02/19 06:30:46;;;;;;;9.13;3.90;;;9.60;83.10;;;;;;5028709;28;20300;-72
2024/02/19 06:33:14;;;;;;;7.40;3.80;;;9.60;83.30;;;;;;5035602;28;20192;-75
2024/02/19 06:35:40;;;;;;;8.70;3.93;;;9.70;83.30;;;;;;5030605;28;20185;-74
2024/02/19 06:38:05;;;;;;;10.90;4.10;;;9.80;83.30;;;;;;5034276;28;21127;-76
2024/02/19 06:40:31;;;;;;;9.30;4.17;;;9.70;83.30;;;;;;5029563;28;20588;-72
2024/02/19 06:42:57;;;;;;;6.80;3.63;;;9.80;83.10;;;;;;5038356;28;20505;-73
2024/02/19 06:45:22;;;;;;;5.47;3.60;;;9.80;83.10;;;;;;5031323;28;20255;-72
2024/02/19 06:47:49;;;;;;;12.17;4.10;;;9.80;83.30;;;;;;5033300;28;20247;-73
2024/02/19 06:50:14;;;;;;;5.63;3.30;;;9.80;83.00;;;;;;5033128;28;20189;-73
2024/02/19 06:52:43;;;;;;;12.47;4.00;;;9.80;83.00;;;;;;5028615;28;20433;-72
2024/02/19 06:55:09;;;;;;;8.80;5.00;;;9.80;83.00;;;;;;5040019;28;20189;-73
2024/02/19 06:57:34;;;;;;;5.90;3.87;;;9.80;83.10;;;;;;5033241;28;20426;-74
2024/02/19 07:00:00;;;;;;;7.50;4.53;;;9.90;83.00;;;;;;5032727;28;20189;-75
2024/02/19 07:02:25;;;;;;;8.37;3.97;;;9.80;82.80;;;;;;5032108;28;20272;-74
2024/02/19 07:04:51;;;;;;;5.50;3.17;;;9.80;82.70;;;;;;5040209;28;20225;-75
2024/02/19 07:07:17;;;;;;;7.00;3.20;;;9.80;82.70;;;;;;5037300;28;20181;-73
2024/02/19 07:09:42;;;;;;;10.43;3.57;;;9.70;82.10;;;;;;5043324;28;20181;-72
2024/02/19 07:12:08;;;;;;;9.17;3.20;;;9.70;82.40;;;;;;5032169;28;20205;-75
2024/02/19 07:14:34;;;;;;;5.20;2.63;;;9.70;82.10;;;;;;5046504;28;20181;-73
2024/02/19 07:17:00;;;;;;;5.57;2.50;;;9.70;81.90;;;;;;5040256;28;20966;-74
2024/02/19 07:19:25;;;;;;;5.80;2.90;;;9.70;81.80;;;;;;5034752;28;20816;-72
2024/02/19 07:21:51;;;;;;;6.03;3.20;;;9.60;81.70;;;;;;5032862;28;20728;-71
2024/02/19 07:24:17;;;;;;;4.83;2.50;;;9.60;81.70;;;;;;5040886;28;20353;-72
2024/02/19 07:26:42;;;;;;;4.77;2.63;;;9.60;81.80;;;;;;5036008;28;20177;-73
2024/02/19 07:29:08;;;;;;;8.87;3.17;;;9.60;81.70;;;;;;5038337;28;20556;-74
2024/02/19 07:31:33;;;;;;;14.37;2.70;;;9.60;81.70;;;;;;5028914;28;20247;-72
2024/02/19 07:33:59;;;;;;;6.30;2.90;;;9.60;81.50;;;;;;5040433;28;20693;-72
2024/02/19 07:36:25;;;;;;;8.33;2.93;;;9.50;81.50;;;;;;5038924;28;20299;-71
2024/02/19 07:38:50;;;;;;;4.93;2.80;;;9.50;81.90;;;;;;5035773;28;20264;-71
2024/02/19 07:41:17;;;;;;;6.00;2.70;;;9.50;82.10;;;;;;5035132;28;20236;-74
2024/02/19 07:43:44;;;;;;;6.87;2.53;;;9.50;81.20;;;;;;5042505;28;20197;-73
2024/02/19 07:46:10;;;;;;;5.50;2.33;;;9.40;81.50;;;;;;5036446;28;20521;-74
2024/02/19 07:48:36;;;;;;;9.07;2.07;;;9.50;81.40;;;;;;5036549;28;20458;-73
2024/02/19 07:51:01;;;;;;;3.43;2.17;;;9.50;80.90;;;;;;5037479;28;20491;-73
2024/02/19 07:53:27;;;;;;;3.87;2.13;;;9.40;80.90;;;;;;5039303;28;20186;-72
2024/02/19 07:56:05;;;;;;;2.60;1.80;;;9.50;81.20;;;;;;5033439;28;20601;-73
2024/02/19 07:58:32;;;;;;;9.00;2.50;;;9.50;80.90;;;;;;5037558;28;20657;-73
2024/02/19 08:00:57;;;;;;;4.67;1.90;;;9.50;80.90;;;;;;5047370;28;20463;-73
2024/02/19 08:03:26;;;;;;;3.20;1.93;;;9.60;80.80;;;;;;5045083;28;20428;-73
2024/02/19 08:05:52;;;;;;;3.87;1.80;;;9.60;79.70;;;;;;5044333;28;20212;-72
2024/02/19 08:08:19;;;;;;;12.50;2.40;;;9.70;79.70;;;;;;5044067;28;20444;-73
2024/02/19 08:10:44;;;;;;;3.57;2.20;;;9.70;79.00;;;;;;5040994;28;20210;-75
2024/02/19 08:13:11;;;;;;;8.10;2.10;;;9.80;79.50;;;;;;5047666;28;20431;-72
2024/02/19 08:15:38;;;;;;;2.30;1.60;;;9.80;78.10;;;;;;5047537;28;20180;-73
2024/02/19 08:18:05;;;;;;;2.90;1.73;;;9.80;77.60;;;;;;5044068;28;20420;-72
2024/02/19 08:20:30;;;;;;;3.23;1.73;;;9.70;77.70;;;;;;5036451;28;20525;-73
2024/02/19 08:22:57;;;;;;;3.27;1.73;;;9.70;77.60;;;;;;5041898;28;20487;-71
2024/02/19 08:25:23;;;;;;;3.97;1.87;;;9.70;77.00;;;;;;5039242;28;20220;-73
2024/02/19 08:27:49;;;;;;;5.30;1.50;;;9.70;77.10;;;;;;5035072;28;20558;-73
2024/02/19 08:30:15;;;;;;;2.33;1.73;;;9.70;77.30;;;;;;5028741;28;20800;-75
2024/02/19 08:32:41;;;;;;;4.43;1.60;;;9.80;76.40;;;;;;5034979;28;20189;-75
2024/02/19 08:35:07;;;;;;;2.50;1.33;;;9.80;76.20;;;;;;5036385;28;20482;-72
2024/02/19 08:37:33;;;;;;;4.87;1.57;;;9.90;77.00;;;;;;5037089;28;20204;-74
2024/02/19 08:39:58;;;;;;;3.03;1.57;;;9.90;76.20;;;;;;5033954;28;20569;-74
2024/02/19 08:42:25;;;;;;;4.43;1.50;;;9.90;75.40;;;;;;5036374;28;20446;-73
2024/02/19 08:44:51;;;;;;;5.67;1.80;;;9.90;75.40;;;;;;5037562;28;20217;-72
2024/02/19 08:47:19;;;;;;;12.90;1.97;;;9.90;75.40;;;;;;5035192;28;20442;-74
2024/02/19 08:49:44;;;;;;;4.03;1.23;;;10.00;75.10;;;;;;5034201;28;20235;-71
2024/02/19 08:52:10;;;;;;;1.70;1.27;;;9.90;74.20;;;;;;5031574;28;20457;-73
2024/02/19 08:54:36;;;;;;;4.77;1.70;;;9.80;74.60;;;;;;5037251;28;20588;-73
2024/02/19 08:57:02;;;;;;;3.53;1.70;;;9.80;75.40;;;;;;5034024;28;20416;-71
2024/02/19 08:59:27;;;;;;;11.10;1.63;;;9.80;75.80;;;;;;5034599;28;20184;-72
2024/02/19 09:01:53;;;;;;;3.43;2.00;;;9.90;75.10;;;;;;5035530;28;20201;-74
2024/02/19 09:04:20;;;;;;;6.17;1.70;;;9.90;74.90;;;;;;5036990;28;20200;-73
2024/02/19 09:06:46;;;;;;;5.93;1.30;;;10.00;74.90;;;;;;5037281;28;20416;-74
2024/02/19 09:09:12;;;;;;;7.23;1.60;;;10.00;73.60;;;;;;5032766;28;20470;-73
2024/02/19 09:11:38;;;;;;;9.80;1.93;;;10.00;74.00;;;;;;5034852;28;20455;-72
2024/02/19 09:14:04;;;;;;;9.40;1.80;;;10.10;74.00;;;;;;5035193;28;20184;-73
2024/02/19 09:16:32;;;;;;;5.90;1.50;;;10.10;73.90;;;;;;5041451;28;20789;-73
2024/02/19 09:18:58;;;;;;;5.33;1.67;;;10.20;73.50;;;;;;5038966;28;20446;-72
2024/02/19 09:21:23;;;;;;;6.90;1.40;;;10.20;73.30;;;;;;5036346;28;20536;-72
2024/02/19 09:23:49;;;;;;;8.60;1.77;;;10.30;72.70;;;;;;5037428;28;20266;-73
2024/02/19 09:26:15;;;;;;;6.50;1.77;;;10.30;72.30;;;;;;5033160;28;20236;-71
2024/02/19 09:28:40;;;;;;;6.00;1.50;;;10.30;72.00;;;;;;5032107;28;20748;-74
2024/02/19 09:31:06;;;;;;;3.00;1.60;;;10.40;71.70;;;;;;5030188;28;20548;-73
2024/02/19 09:33:32;;;;;;;2.60;1.40;;;10.40;71.60;;;;;;5032964;28;20555;-73
2024/02/19 09:35:58;;;;;;;5.70;1.63;;;10.30;71.70;;;;;;5032898;28;20259;-72
2024/02/19 09:38:24;;;;;;;4.97;1.80;;;10.30;71.80;;;;;;5033501;28;20415;-72
2024/02/19 09:40:51;;;;;;;3.17;1.43;;;10.40;72.10;;;;;;5027498;28;20460;-74
2024/02/19 09:43:17;;;;;;;4.70;1.57;;;10.40;71.40;;;;;;5037707;28;20416;-73
2024/02/19 09:45:44;;;;;;;6.73;1.73;;;10.20;71.40;;;;;;5036965;28;20486;-73
2024/02/19 09:48:10;;;;;;;7.80;1.40;;;10.30;71.40;;;;;;5032425;28;20478;-75
2024/02/19 09:50:43;;;;;;;4.70;1.63;;;10.40;71.40;;;;;;5032382;28;20460;-74
2024/02/19 09:53:10;;;;;;;2.93;1.80;;;10.50;71.70;;;;;;5041106;28;20924;-74
2024/02/19 09:55:37;;;;;;;4.60;1.40;;;10.70;71.40;;;;;;5037508;28;20527;-73
2024/02/19 09:58:05;;;;;;;4.03;1.70;;;10.70;70.70;;;;;;5037462;28;20909;-73
2024/02/19 10:00:31;;;;;;;3.33;1.50;;;10.60;70.70;;;;;;5028040;28;20463;-74
2024/02/19 10:02:57;;;;;;;4.43;1.57;;;10.70;70.80;;;;;;5038402;28;20461;-72
2024/02/19 10:05:22;;;;;;;3.00;1.60;;;10.70;70.10;;;;;;5035350;28;20467;-72
2024/02/19 10:07:48;;;;;;;4.73;1.50;;;10.50;69.80;;;;;;5037373;28;20189;-74
2024/02/19 10:10:14;;;;;;;5.00;1.40;;;10.40;70.50;;;;;;5032022;28;20191;-73
2024/02/19 10:12:39;;;;;;;2.53;1.53;;;10.40;70.40;;;;;;5039589;28;20439;-75
2024/02/19 10:15:06;;;;;;;4.60;1.60;;;10.40;70.10;;;;;;5033024;28;20498;-74
2024/02/19 10:17:32;;;;;;;4.53;1.60;;;10.40;70.10;;;;;;5035456;28;20184;-73
2024/02/19 10:20:07;;;;;;;3.23;1.50;;;10.50;70.10;;;;;;5034229;28;20434;-74
2024/02/19 10:22:33;;;;;;;3.13;1.40;;;10.60;70.40;;;;;;5032493;28;20176;-74
2024/02/19 10:25:06;;;;;;;4.60;2.00;;;10.70;70.20;;;;;;5031421;28;21329;-73
2024/02/19 10:27:35;;;;;;;5.50;1.57;;;10.70;69.90;;;;;;5030889;28;20952;-74
2024/02/19 10:30:02;;;;;;;5.53;1.80;;;10.60;69.70;;;;;;5031188;28;20427;-75
2024/02/19 10:32:28;;;;;;;5.10;1.50;;;10.50;70.20;;;;;;5030900;28;20542;-72
2024/02/19 10:34:54;;;;;;;8.83;1.70;;;10.50;70.40;;;;;;5031603;28;20420;-73
2024/02/19 10:37:19;;;;;;;14.43;2.80;;;10.50;70.50;;;;;;5032298;28;20519;-73
2024/02/19 10:39:45;;;;;;;8.40;2.40;;;10.50;70.40;;;;;;5031113;28;20200;-74
2024/02/19 10:42:12;;;;;;;4.50;1.67;;;10.50;70.50;;;;;;5030861;28;20498;-73
2024/02/19 10:44:38;;;;;;;5.97;2.20;;;10.40;70.50;;;;;;5041157;28;20214;-74
2024/02/19 10:47:06;;;;;;;12.43;2.40;;;10.30;70.70;;;;;;5041051;28;20440;-72
2024/02/19 10:49:32;;;;;;;9.20;2.53;;;10.30;70.80;;;;;;5032407;28;20507;-73
2024/02/19 10:51:57;;;;;;;2.73;1.43;;;10.40;70.40;;;;;;5026358;28;20590;-73
2024/02/19 10:54:23;;;;;;;37.70;5.63;;;10.50;69.90;;;;;;5040685;28;20183;-74
2024/02/19 10:56:50;;;;;;;7.13;2.07;;;10.40;69.70;;;;;;5032020;28;20526;-74
2024/02/19 10:59:17;;;;;;;5.40;2.23;;;10.40;70.20;;;;;;5032559;28;20228;-76
2024/02/19 11:01:48;;;;;;;5.10;1.90;;;10.60;69.90;;;;;;5029533;28;20471;-74
2024/02/19 11:04:16;;;;;;;7.53;1.60;;;10.70;69.80;;;;;;5039554;28;20966;-73
2024/02/19 11:06:54;;;;;;;2.67;1.63;;;10.70;68.60;;;;;;5033953;28;20470;-72
2024/02/19 11:09:20;;;;;;;7.23;1.70;;;10.80;68.80;;;;;;5035107;28;20431;-73
2024/02/19 11:11:51;;;;;;;5.60;1.53;;;10.90;68.60;;;;;;5028198;28;20467;-73
2024/02/19 11:14:25;;;;;;;7.83;1.80;;;10.80;68.80;;;;;;5031508;28;21002;-74
2024/02/19 11:16:57;;;;;;;3.10;1.50;;;10.70;68.90;;;;;;5033430;28;20440;-73
2024/02/19 11:19:23;;;;;;;7.07;1.70;;;10.60;69.80;;;;;;5035374;28;20468;-74
2024/02/19 11:21:48;;;;;;;3.57;1.90;;;10.70;69.10;;;;;;5026183;28;20467;-71
2024/02/19 11:24:14;;;;;;;4.03;1.60;;;10.70;69.40;;;;;;5039563;28;20427;-73
2024/02/19 11:26:43;;;;;;;6.27;1.93;;;10.80;69.40;;;;;;5050516;28;20274;-73
2024/02/19 11:29:17;;;;;;;3.93;1.57;;;10.70;69.40;;;;;;5040650;28;20181;-72
2024/02/19 11:31:44;;;;;;;2.93;1.63;;;10.60;69.40;;;;;;5031197;28;20459;-74
2024/02/19 11:34:20;;;;;;;3.60;2.13;;;10.70;69.40;;;;;;5033668;28;20452;-74
2024/02/19 11:36:48;;;;;;;3.97;1.90;;;10.70;68.80;;;;;;5029699;28;20447;-74
2024/02/19 11:39:14;;;;;;;2.93;1.63;;;10.80;69.40;;;;;;5030194;28;20474;-73
2024/02/19 11:41:43;;;;;;;6.90;1.80;;;10.90;69.10;;;;;;5031547;28;21286;-73
2024/02/19 11:44:14;;;;;;;5.50;1.90;;;10.80;68.90;;;;;;5032481;28;20185;-74
2024/02/19 11:46:41;;;;;;;3.97;2.10;;;10.80;68.30;;;;;;5035499;28;20448;-74
2024/02/19 11:49:08;;;;;;;3.20;1.93;;;10.80;68.80;;;;;;5032255;28;20680;-72
2024/02/19 11:51:35;;;;;;;5.30;2.70;;;10.90;68.00;;;;;;5031687;28;20557;-74
2024/02/19 11:54:02;;;;;;;12.43;2.60;;;10.90;67.90;;;;;;5042435;28;20446;-74
2024/02/19 11:56:27;;;;;;;3.23;1.47;;;10.90;67.60;;;;;;5049476;28;20466;-74
2024/02/19 11:58:54;;;;;;;7.30;1.57;;;10.90;67.70;;;;;;5044535;28;20820;-74
2024/02/19 12:01:24;;;;;;;7.23;1.80;;;11.10;67.70;;;;;;5041085;28;20216;-73
2024/02/19 12:03:51;;;;;;;7.63;1.70;;;11.10;67.20;;;;;;5038182;28;20542;-74
2024/02/19 12:06:17;;;;;;;4.77;1.70;;;11.10;67.20;;;;;;5036270;28;20494;-74
2024/02/19 12:08:44;;;;;;;4.27;1.80;;;11.10;67.20;;;;;;5033149;28;20913;-74
2024/02/19 12:11:11;;;;;;;6.03;1.50;;;11.10;67.50;;;;;;5039507;28;21098;-73
2024/02/19 12:13:37;;;;;;;4.40;1.87;;;11.40;66.90;;;;;;5043788;28;20510;-73
2024/02/19 12:16:04;;;;;;;5.73;1.97;;;11.40;66.70;;;;;;5037631;28;20436;-73
2024/02/19 12:18:30;;;;;;;3.47;1.83;;;11.40;66.00;;;;;;5034770;28;20527;-72
2024/02/19 12:20:56;;;;;;;5.03;1.20;;;11.40;66.40;;;;;;5029318;28;20463;-74
2024/02/19 12:23:21;;;;;;;3.20;1.30;;;11.40;66.00;;;;;;5027699;28;20439;-74
2024/02/19 12:25:47;;;;;;;2.23;1.47;;;11.30;65.80;;;;;;5031646;28;20219;-73
2024/02/19 12:28:13;;;;;;;3.97;1.53;;;11.20;65.70;;;;;;5035303;28;20792;-73
2024/02/19 12:30:38;;;;;;;4.33;1.70;;;11.10;65.60;;;;;;5028980;28;20296;-73
2024/02/19 12:33:04;;;;;;;3.50;2.17;;;11.00;65.80;;;;;;5030050;28;20185;-74
2024/02/19 12:35:29;;;;;;;4.30;1.53;;;11.00;66.00;;;;;;5032611;28;20331;-73
2024/02/19 12:37:55;;;;;;;7.67;1.90;;;11.10;66.30;;;;;;5036788;28;20188;-73
2024/02/19 12:40:21;;;;;;;3.57;1.30;;;11.20;65.80;;;;;;5032109;28;20189;-76
2024/02/19 12:42:46;;;;;;;9.60;2.00;;;11.10;65.80;;;;;;5036007;28;20261;-75
2024/02/19 12:45:12;;;;;;;3.70;1.43;;;11.10;66.10;;;;;;5032221;28;20705;-74
2024/02/19 12:47:38;;;;;;;6.53;2.03;;;11.30;66.30;;;;;;5032590;28;20189;-72